createdAt,value
2022-12-25T00:01:32.306Z,100630.28
2022-12-25T00:03:59.620Z,100632.53
2022-12-25T00:06:26.757Z,100642.94
2022-12-25T00:08:53.953Z,100642.09
2022-12-25T00:11:21.453Z,100650.88
2022-12-25T00:13:49.294Z,100656.47
2022-12-25T00:16:17.737Z,100659.84
2022-12-25T00:18:45.422Z,100656.81
2022-12-25T00:21:13.317Z,100665.25
2022-12-25T00:23:40.614Z,100668.91
2022-12-25T00:26:09.921Z,100670.44
2022-12-25T00:28:36.975Z,100680.41
2022-12-25T00:31:12.399Z,100676.31
2022-12-25T00:33:41.435Z,100689.25
2022-12-25T00:36:09.925Z,100682.25
2022-12-25T00:38:39.060Z,100685.41
2022-12-25T00:41:11.295Z,100673.78
2022-12-25T00:43:44.377Z,100682.56
2022-12-25T00:46:13.245Z,100676.88
2022-12-25T00:48:40.726Z,100683.97
2022-12-25T00:51:11.547Z,100678.06
2022-12-25T00:53:38.723Z,100686.50
2022-12-25T00:56:08.404Z,100675.09
2022-12-25T00:58:36.286Z,100673.91
2022-12-25T01:01:04.060Z,100679.72
2022-12-25T01:03:31.458Z,100689.59
2022-12-25T01:06:01.144Z,100685.31
2022-12-25T01:08:30.669Z,100691.63
2022-12-25T01:11:02.798Z,100700.41
2022-12-25T01:13:30.966Z,100695.41
2022-12-25T01:15:58.389Z,100700.09
2022-12-25T01:18:25.650Z,100692.44
2022-12-25T01:20:52.718Z,100695.19
2022-12-25T01:23:19.783Z,100703.63
2022-12-25T01:25:46.664Z,100700.88
2022-12-25T01:28:13.881Z,100699.47
2022-12-25T01:30:47.442Z,100693.22
2022-12-25T01:33:14.599Z,100703.25
2022-12-25T01:35:42.186Z,100698.44
2022-12-25T01:38:09.083Z,100698.22
2022-12-25T01:40:36.041Z,100700.28
2022-12-25T01:43:03.052Z,100700.38
2022-12-25T01:45:32.810Z,100705.63
2022-12-25T01:48:02.717Z,100706.41
2022-12-25T01:50:29.853Z,100700.81
2022-12-25T01:52:58.294Z,100701.47
2022-12-25T01:55:26.958Z,100713.56
2022-12-25T01:57:54.205Z,100709.25
2022-12-25T02:00:21.227Z,100711.03
2022-12-25T02:02:49.175Z,100706.16
2022-12-25T02:05:21.502Z,100713.06
2022-12-25T02:07:48.728Z,100715.28
2022-12-25T02:10:15.896Z,100715.66
2022-12-25T02:12:45.200Z,100724.78
2022-12-25T02:15:15.846Z,100724.22
2022-12-25T02:18:04.383Z,100725.06
2022-12-25T02:20:59.892Z,100732.31
2022-12-25T02:23:42.618Z,100731.69
2022-12-25T02:26:09.514Z,100739.44
2022-12-25T02:28:46.048Z,100737.56
2022-12-25T02:31:39.056Z,100736.13
2022-12-25T02:34:06.184Z,100743.81
2022-12-25T02:36:50.402Z,100740.19
2022-12-25T02:39:58.128Z,100741.53
2022-12-25T02:43:20.599Z,100744.41
2022-12-25T02:46:16.718Z,100739.75
2022-12-25T02:49:11.326Z,100745.34
2022-12-25T02:52:01.991Z,100750.47
2022-12-25T02:54:53.326Z,100756.28
2022-12-25T02:57:44.802Z,100756.34
2022-12-25T03:00:32.215Z,100762.47
2022-12-25T03:03:21.317Z,100757.84
2022-12-25T03:06:08.148Z,100767.13
2022-12-25T03:08:43.090Z,100768.66
2022-12-25T03:11:31.214Z,100773.53
2022-12-25T03:26:57.201Z,100782.97
2022-12-25T03:29:44.586Z,100780.44
2022-12-25T03:32:39.068Z,100778.69
2022-12-25T03:35:44.339Z,100780.25
2022-12-25T03:38:32.840Z,100778.06
2022-12-25T03:41:34.963Z,100781.03
2022-12-25T03:44:38.472Z,100781.78
2022-12-25T03:47:22.076Z,100795.78
2022-12-25T03:50:21.785Z,100795.72
2022-12-25T03:53:10.024Z,100804.44
2022-12-25T03:55:56.884Z,100816.31
2022-12-25T03:58:44.188Z,100806.72
2022-12-25T04:01:29.992Z,100806.69
2022-12-25T04:04:15.721Z,100816.75
2022-12-25T04:07:01.499Z,100820.06
2022-12-25T04:09:46.780Z,100821.44
2022-12-25T04:12:32.359Z,100821.50
2022-12-25T04:15:18.114Z,100833.81
2022-12-25T04:18:03.413Z,100836.00
2022-12-25T04:20:49.106Z,100840.38
2022-12-25T04:23:34.642Z,100847.78
2022-12-25T04:26:20.393Z,100852.75
2022-12-25T04:29:06.188Z,100860.44
2022-12-25T04:31:51.856Z,100867.03
2022-12-25T04:34:37.039Z,100859.47
2022-12-25T04:37:04.063Z,100863.84
2022-12-25T04:39:31.341Z,100865.25
2022-12-25T04:41:59.500Z,100870.47
2022-12-25T04:44:26.800Z,100868.56
2022-12-25T04:46:53.820Z,100881.97
2022-12-25T04:49:20.965Z,100883.28
2022-12-25T04:51:47.947Z,100887.72
2022-12-25T04:54:14.969Z,100895.44
2022-12-25T04:56:45.837Z,100896.28
2022-12-25T04:59:13.213Z,100899.03
2022-12-25T05:01:40.594Z,100902.59
2022-12-25T05:04:07.796Z,100899.88
2022-12-25T05:06:34.941Z,100899.03
2022-12-25T05:09:01.994Z,100903.72
2022-12-25T05:11:29.153Z,100904.78
2022-12-25T05:13:57.703Z,100912.22
2022-12-25T05:16:26.456Z,100910.84
2022-12-25T05:18:53.363Z,100917.16
2022-12-25T05:21:20.780Z,100917.72
2022-12-25T05:23:51.747Z,100916.41
2022-12-25T05:26:23.027Z,100915.06
2022-12-25T05:28:50.535Z,100919.47
2022-12-25T05:31:17.992Z,100919.44
2022-12-25T05:33:44.969Z,100921.63
2022-12-25T05:36:13.141Z,100919.16
2022-12-25T05:38:40.286Z,100922.16
2022-12-25T05:41:07.640Z,100920.81
2022-12-25T05:43:34.508Z,100931.19
2022-12-25T05:46:08.990Z,100930.09
2022-12-25T05:48:37.549Z,100933.91
2022-12-25T05:51:10.476Z,100936.06
2022-12-25T05:53:40.655Z,100941.03
2022-12-25T05:56:09.417Z,100938.56
2022-12-25T05:58:39.264Z,100951.44
2022-12-25T06:01:16.760Z,100954.31
2022-12-25T06:03:43.991Z,100948.28
2022-12-25T06:06:11.983Z,100957.09
2022-12-25T06:08:39.223Z,100961.66
2022-12-25T06:11:08.000Z,100966.75
2022-12-25T06:13:36.243Z,100972.53
2022-12-25T06:16:08.241Z,100983.47
2022-12-25T06:18:43.404Z,100986.94
2022-12-25T06:21:12.629Z,100986.91
2022-12-25T06:23:40.351Z,100998.81
2022-12-25T06:26:10.490Z,100993.63
2022-12-25T06:28:37.718Z,101009.16
2022-12-25T06:31:14.844Z,101001.06
2022-12-25T06:33:42.386Z,100998.69
2022-12-25T06:36:12.661Z,101008.22
2022-12-25T06:38:39.904Z,101010.78
2022-12-25T06:41:10.608Z,101015.28
2022-12-25T06:43:38.351Z,101019.47
2022-12-25T06:46:07.772Z,101027.47
2022-12-25T06:48:35.413Z,101034.28
2022-12-25T06:51:03.668Z,101028.22
2022-12-25T06:53:38.810Z,101035.53
2022-12-25T06:56:15.652Z,101033.44
2022-12-25T06:58:56.569Z,101032.78
2022-12-25T07:01:43.725Z,101037.63
2022-12-25T07:04:38.081Z,101045.22
2022-12-25T07:07:09.350Z,101050.50
2022-12-25T07:09:39.214Z,101045.19
2022-12-25T07:12:11.862Z,101056.22
2022-12-25T07:14:38.910Z,101060.47
2022-12-25T07:17:06.345Z,101060.03
2022-12-25T07:19:33.317Z,101070.56
2022-12-25T07:22:00.320Z,101065.72
2022-12-25T07:24:27.344Z,101054.03
2022-12-25T07:26:54.323Z,101060.28
2022-12-25T07:29:21.294Z,101064.91
2022-12-25T07:31:48.359Z,101066.50
2022-12-25T07:34:17.511Z,101058.03
2022-12-25T07:36:44.601Z,101064.41
2022-12-25T07:39:11.837Z,101059.38
2022-12-25T07:41:38.781Z,101064.94
2022-12-25T07:44:15.274Z,101063.78
2022-12-25T07:46:42.297Z,101062.13
2022-12-25T07:49:10.805Z,101061.25
2022-12-25T07:51:37.940Z,101067.25
2022-12-25T07:54:05.401Z,101062.13
2022-12-25T07:56:33.268Z,101062.25
2022-12-25T07:59:00.186Z,101064.06
2022-12-25T08:01:27.934Z,101065.72
2022-12-25T08:03:57.252Z,101066.31
2022-12-25T08:06:29.828Z,101074.19
2022-12-25T08:09:04.623Z,101072.41
2022-12-25T08:11:31.642Z,101063.47
2022-12-25T08:13:58.670Z,101062.88
2022-12-25T08:16:25.779Z,101060.09
2022-12-25T08:18:53.870Z,101075.72
2022-12-25T08:21:21.004Z,101074.47
2022-12-25T08:23:48.445Z,101086.06
2022-12-25T08:26:21.599Z,101092.28
2022-12-25T08:28:49.421Z,101090.31
2022-12-25T08:31:19.490Z,101092.38
2022-12-25T08:33:47.616Z,101100.00
2022-12-25T08:36:15.854Z,101100.69
2022-12-25T08:38:43.084Z,101109.66
2022-12-25T08:41:11.177Z,101109.00
2022-12-25T08:43:38.235Z,101099.84
2022-12-25T08:46:06.436Z,101103.13
2022-12-25T08:48:34.787Z,101109.97
2022-12-25T08:51:02.434Z,101096.19
2022-12-25T08:53:29.370Z,101093.28
2022-12-25T08:56:01.244Z,101092.03
2022-12-25T08:58:28.747Z,101086.25
2022-12-25T09:00:56.323Z,101085.84
2022-12-25T09:03:24.657Z,101079.47
2022-12-25T09:05:52.676Z,101079.66
2022-12-25T09:08:22.016Z,101063.75
2022-12-25T09:10:49.432Z,101083.19
2022-12-25T09:13:16.906Z,101077.25
2022-12-25T09:15:43.875Z,101085.72
2022-12-25T09:18:11.828Z,101073.50
2022-12-25T09:20:39.002Z,101085.53
2022-12-25T09:23:11.607Z,101083.75
2022-12-25T09:25:40.786Z,101086.31
2022-12-25T09:28:07.772Z,101084.75
2022-12-25T09:30:34.950Z,101083.47
2022-12-25T09:33:01.973Z,101076.94
2022-12-25T09:35:28.909Z,101079.25
2022-12-25T09:37:55.969Z,101084.59
2022-12-25T09:40:28.145Z,101081.28
2022-12-25T09:42:56.258Z,101080.94
2022-12-25T09:45:30.181Z,101085.03
2022-12-25T09:47:57.426Z,101075.88
2022-12-25T09:50:33.509Z,101082.34
2022-12-25T09:53:14.996Z,101077.16
2022-12-25T09:55:50.378Z,101078.97
2022-12-25T09:58:17.366Z,101076.16
2022-12-25T10:00:54.097Z,101080.56
2022-12-25T10:03:26.907Z,101080.06
2022-12-25T10:06:21.420Z,101087.34
2022-12-25T10:08:54.291Z,101079.84
2022-12-25T10:11:43.456Z,101083.56
2022-12-25T10:14:14.020Z,101084.25
2022-12-25T10:17:19.336Z,101088.94
2022-12-25T10:19:52.175Z,101086.06
2022-12-25T10:22:50.108Z,101089.53
2022-12-25T10:25:24.041Z,101084.56
2022-12-25T10:27:53.046Z,101083.59
2022-12-25T10:30:25.339Z,101090.03
2022-12-25T10:32:55.288Z,101093.09
2022-12-25T10:35:24.720Z,101094.94
2022-12-25T10:38:06.581Z,101104.94
2022-12-25T10:40:52.170Z,101102.47
2022-12-25T10:43:25.716Z,101093.56
2022-12-25T10:45:52.645Z,101106.91
2022-12-25T10:48:30.774Z,101113.31
2022-12-25T10:50:57.925Z,101107.75
2022-12-25T10:53:27.239Z,101094.56
2022-12-25T10:56:06.044Z,101104.91
2022-12-25T10:58:34.337Z,101097.56
2022-12-25T11:01:07.174Z,101100.13
2022-12-25T11:03:44.953Z,101103.19
2022-12-25T11:06:28.892Z,101102.69
2022-12-25T11:08:59.630Z,101107.63
2022-12-25T11:11:28.225Z,101112.81
2022-12-25T11:13:58.973Z,101112.72
2022-12-25T11:16:27.576Z,101111.91
2022-12-25T11:18:55.383Z,101118.97
2022-12-25T11:21:27.322Z,101112.81
2022-12-25T11:24:17.873Z,101110.53
2022-12-25T11:26:59.196Z,101109.94
2022-12-25T11:29:49.246Z,101115.31
2022-12-25T11:32:43.625Z,101119.63
2022-12-25T11:35:17.479Z,101122.50
2022-12-25T11:37:53.907Z,101127.31
2022-12-25T11:40:29.271Z,101126.13
2022-12-25T11:43:07.813Z,101125.09
2022-12-25T11:45:41.860Z,101130.03
2022-12-25T11:48:18.274Z,101131.75
2022-12-25T11:51:11.651Z,101137.88
2022-12-25T11:53:41.286Z,101133.44
2022-12-25T11:56:11.881Z,101130.25
2022-12-25T11:58:56.989Z,101131.09
2022-12-25T12:01:55.281Z,101142.84
2022-12-25T12:04:32.685Z,101152.91
2022-12-25T12:07:13.725Z,101157.31
2022-12-25T12:10:16.804Z,101162.63
2022-12-25T12:13:11.575Z,101165.50
2022-12-25T12:15:47.467Z,101158.38
2022-12-25T12:18:23.256Z,101161.75
2022-12-25T12:21:08.783Z,101166.22
2022-12-25T12:23:56.523Z,101173.66
2022-12-25T12:26:26.119Z,101171.44
2022-12-25T12:28:57.021Z,101171.75
2022-12-25T12:31:24.656Z,101168.31
2022-12-25T12:33:59.933Z,101176.28
2022-12-25T12:36:35.603Z,101176.75
2022-12-25T12:39:05.315Z,101176.28
2022-12-25T12:41:47.186Z,101180.81
2022-12-25T12:44:16.187Z,101177.00
2022-12-25T12:46:52.645Z,101180.84
2022-12-25T12:49:29.604Z,101177.22
2022-12-25T12:52:36.169Z,101178.31
2022-12-25T12:55:09.495Z,101191.84
2022-12-25T12:57:40.173Z,101190.22
2022-12-25T13:00:10.048Z,101180.72
2022-12-25T13:02:51.769Z,101199.31
2022-12-25T13:05:18.662Z,101199.47
2022-12-25T13:07:51.493Z,101190.78
2022-12-25T13:10:27.363Z,101204.97
2022-12-25T13:13:01.841Z,101208.84
2022-12-25T13:15:32.805Z,101214.09
2022-12-25T13:18:10.058Z,101221.72
2022-12-25T13:20:40.191Z,101220.88
2022-12-25T13:23:34.164Z,101238.81
2022-12-25T13:26:06.481Z,101234.81
2022-12-25T13:28:36.172Z,101234.84
2022-12-25T13:31:21.804Z,101243.16
2022-12-25T13:34:20.129Z,101254.72
2022-12-25T13:36:47.129Z,101261.50
2022-12-25T13:39:18.461Z,101264.06
2022-12-25T13:42:09.607Z,101263.34
2022-12-25T13:44:39.476Z,101261.44
2022-12-25T13:47:18.790Z,101272.72
2022-12-25T13:49:47.029Z,101266.91
2022-12-25T13:52:16.997Z,101255.84
2022-12-25T13:55:00.332Z,101266.44
2022-12-25T13:57:37.288Z,101269.13
2022-12-25T14:00:08.389Z,101263.78
2022-12-25T14:02:39.541Z,101276.41
2022-12-25T14:05:41.728Z,101276.84
2022-12-25T14:08:22.920Z,101296.06
2022-12-25T14:10:52.199Z,101289.84
2022-12-25T14:13:22.840Z,101295.59
2022-12-25T14:15:53.564Z,101300.63
2022-12-25T14:18:23.309Z,101296.22
2022-12-25T14:21:11.128Z,101302.41
2022-12-25T14:23:43.770Z,101296.78
2022-12-25T14:26:17.968Z,101309.38
2022-12-25T14:29:23.641Z,101317.75
2022-12-25T14:31:54.571Z,101321.13
2022-12-25T14:34:24.397Z,101328.81
2022-12-25T14:36:52.829Z,101330.63
2022-12-25T14:39:38.017Z,101331.94
2022-12-25T14:42:37.813Z,101332.13
2022-12-25T14:45:32.290Z,101335.41
2022-12-25T14:48:03.115Z,101333.97
2022-12-25T14:50:37.454Z,101332.78
2022-12-25T14:53:17.022Z,101341.56
2022-12-25T14:55:48.348Z,101342.25
2022-12-25T14:58:28.587Z,101354.03
2022-12-25T15:00:57.451Z,101361.34
2022-12-25T15:03:35.573Z,101357.09
2022-12-25T15:06:20.844Z,101359.84
2022-12-25T15:08:59.117Z,101369.00
2022-12-25T15:11:26.563Z,101379.44
2022-12-25T15:28:38.010Z,101381.25
2022-12-25T15:31:17.824Z,101392.34
2022-12-25T15:33:44.792Z,101390.63
2022-12-25T15:36:11.694Z,101405.16
2022-12-25T15:38:39.042Z,101379.28
2022-12-25T15:41:37.681Z,101400.19
2022-12-25T15:44:06.335Z,101406.47
2022-12-25T15:46:34.685Z,101411.69
2022-12-25T15:49:01.703Z,101411.19
2022-12-25T15:51:28.665Z,101408.16
2022-12-25T15:53:55.549Z,101415.81
2022-12-25T15:56:23.932Z,101423.69
2022-12-25T15:58:50.923Z,101422.38
2022-12-25T16:01:19.755Z,101428.50
2022-12-25T16:03:47.507Z,101422.47
2022-12-25T16:06:18.747Z,101434.09
2022-12-25T16:08:46.127Z,101432.88
2022-12-25T16:11:12.993Z,101432.31
2022-12-25T16:13:39.886Z,101436.94
2022-12-25T16:16:07.210Z,101444.09
2022-12-25T16:18:34.240Z,101440.75
2022-12-25T16:21:01.279Z,101446.22
2022-12-25T16:23:28.582Z,101438.69
2022-12-25T16:25:55.358Z,101444.38
2022-12-25T16:28:22.370Z,101449.16
2022-12-25T16:30:49.377Z,101449.44
2022-12-25T16:33:16.327Z,101449.16
2022-12-25T16:35:44.165Z,101460.16
2022-12-25T16:38:11.876Z,101453.88
2022-12-25T16:40:38.899Z,101455.22
2022-12-25T16:43:05.880Z,101453.88
2022-12-25T16:45:37.938Z,101451.34
2022-12-25T16:48:05.002Z,101459.44
2022-12-25T16:50:31.909Z,101455.16
2022-12-25T16:52:58.809Z,101458.72
2022-12-25T16:55:30.016Z,101459.56
2022-12-25T16:57:57.485Z,101468.91
2022-12-25T17:00:24.409Z,101467.47
2022-12-25T17:02:51.362Z,101474.63
2022-12-25T17:05:18.654Z,101491.22
2022-12-25T17:07:45.751Z,101487.13
2022-12-25T17:10:13.277Z,101482.13
2022-12-25T17:12:40.368Z,101491.59
2022-12-25T17:15:08.184Z,101494.88
2022-12-25T17:17:35.176Z,101487.97
2022-12-25T17:20:01.996Z,101496.47
2022-12-25T17:22:28.882Z,101502.56
2022-12-25T17:24:55.741Z,101504.22
2022-12-25T17:27:22.734Z,101498.94
2022-12-25T17:29:49.914Z,101514.06
2022-12-25T17:32:16.754Z,101505.94
2022-12-25T17:34:43.706Z,101507.56
2022-12-25T17:37:10.559Z,101506.88
2022-12-25T17:39:40.167Z,101498.09
2022-12-25T17:42:07.011Z,101498.19
2022-12-25T17:44:36.528Z,101492.13
2022-12-25T17:47:03.528Z,101490.03
2022-12-25T17:49:30.456Z,101489.00
2022-12-25T17:51:57.327Z,101483.53
2022-12-25T17:54:24.208Z,101494.25
2022-12-25T17:56:51.026Z,101482.69
2022-12-25T17:59:23.231Z,101483.88
2022-12-25T18:01:50.180Z,101476.72
2022-12-25T18:04:17.134Z,101483.34
2022-12-25T18:06:44.012Z,101488.06
2022-12-25T18:09:12.187Z,101485.00
2022-12-25T18:11:43.172Z,101491.06
2022-12-25T18:14:13.585Z,101494.94
2022-12-25T18:16:43.373Z,101492.19
2022-12-25T18:19:11.763Z,101493.00
2022-12-25T18:21:38.709Z,101498.50
2022-12-25T18:24:06.619Z,101505.38
2022-12-25T18:26:34.405Z,101506.75
2022-12-25T18:29:01.619Z,101508.97
2022-12-25T18:31:30.390Z,101508.19
2022-12-25T18:33:58.318Z,101517.47
2022-12-25T18:36:27.947Z,101520.25
2022-12-25T18:38:56.359Z,101513.66
2022-12-25T18:41:23.714Z,101524.91
2022-12-25T18:43:54.195Z,101526.56
2022-12-25T18:46:25.277Z,101525.44
2022-12-25T18:48:53.941Z,101532.88
2022-12-25T18:51:20.879Z,101535.06
2022-12-25T18:53:47.865Z,101535.63
2022-12-25T18:56:17.688Z,101540.59
2022-12-25T18:58:46.438Z,101543.31
2022-12-25T19:01:17.411Z,101543.06
2022-12-25T19:03:45.331Z,101533.72
2022-12-25T19:06:24.200Z,101535.63
2022-12-25T19:08:51.370Z,101528.50
2022-12-25T19:11:18.995Z,101528.78
2022-12-25T19:13:46.213Z,101539.22
2022-12-25T19:16:13.242Z,101542.22
2022-12-25T19:18:40.478Z,101540.03
2022-12-25T19:21:09.394Z,101551.56
2022-12-25T19:23:38.140Z,101544.13
2022-12-25T19:26:06.752Z,101542.78
2022-12-25T19:28:34.313Z,101538.66
2022-12-25T19:31:02.174Z,101542.50
2022-12-25T19:33:31.634Z,101546.06
2022-12-25T19:36:08.412Z,101544.97
2022-12-25T19:38:35.678Z,101552.38
2022-12-25T19:41:07.544Z,101545.50
2022-12-25T19:43:37.212Z,101556.78
2022-12-25T19:46:05.973Z,101558.13
2022-12-25T19:48:33.671Z,101551.81
2022-12-25T19:51:00.972Z,101561.16
2022-12-25T19:53:29.788Z,101572.66
2022-12-25T19:56:01.476Z,101568.03
2022-12-25T19:58:29.789Z,101576.25
2022-12-25T20:01:01.733Z,101574.88
2022-12-25T20:03:28.973Z,101576.78
2022-12-25T20:05:56.664Z,101575.69
2022-12-25T20:08:24.285Z,101578.97
2022-12-25T20:10:51.228Z,101579.53
2022-12-25T20:13:18.779Z,101575.69
2022-12-25T20:15:46.114Z,101575.66
2022-12-25T20:18:13.444Z,101582.78
2022-12-25T20:20:40.965Z,101587.41
2022-12-25T20:23:08.096Z,101589.91
2022-12-25T20:25:39.708Z,101596.47
2022-12-25T20:28:06.771Z,101592.31
2022-12-25T20:30:41.489Z,101601.34
2022-12-25T20:33:08.786Z,101608.09
2022-12-25T20:35:35.947Z,101617.38
2022-12-25T20:38:03.305Z,101608.66
2022-12-25T20:40:30.364Z,101623.19
2022-12-25T20:42:57.233Z,101623.41
2022-12-25T20:45:26.816Z,101622.25
2022-12-25T20:47:53.958Z,101625.63
2022-12-25T20:50:21.355Z,101627.41
2022-12-25T20:52:48.349Z,101623.88
2022-12-25T20:55:15.395Z,101627.13
2022-12-25T20:57:42.431Z,101630.66
2022-12-25T21:00:10.574Z,101631.44
2022-12-25T21:02:42.839Z,101634.75
2022-12-25T21:05:13.156Z,101634.13
2022-12-25T21:07:40.068Z,101633.50
2022-12-25T21:10:07.841Z,101632.97
2022-12-25T21:12:35.072Z,101634.09
2022-12-25T21:15:02.535Z,101636.88
2022-12-25T21:17:29.538Z,101637.84
2022-12-25T21:19:56.541Z,101652.38
2022-12-25T21:22:26.780Z,101649.84
2022-12-25T21:24:53.844Z,101656.94
2022-12-25T21:27:20.931Z,101650.91
2022-12-25T21:29:47.946Z,101652.34
2022-12-25T21:32:33.196Z,101648.53
2022-12-25T21:36:18.074Z,101651.72
2022-12-25T21:39:09.097Z,101657.34
2022-12-25T21:46:32.434Z,101648.19
2022-12-25T21:49:00.927Z,101646.63
2022-12-25T21:51:53.595Z,101647.41
2022-12-25T21:54:23.784Z,101651.81
2022-12-25T21:56:51.074Z,101650.22
2022-12-25T22:02:20.970Z,101641.34
2022-12-25T22:04:48.033Z,101644.97
2022-12-25T22:07:17.953Z,101653.38
2022-12-25T22:09:49.994Z,101655.03
2022-12-25T22:12:37.732Z,101658.88
2022-12-25T22:15:07.762Z,101661.88
2022-12-25T22:18:01.426Z,101657.75
2022-12-25T22:20:37.273Z,101647.53
2022-12-25T22:23:04.945Z,101651.47
2022-12-25T22:25:31.979Z,101658.88
2022-12-25T22:27:59.885Z,101650.38
2022-12-25T22:30:28.662Z,101650.63
2022-12-25T22:32:56.317Z,101649.28
2022-12-25T22:35:23.757Z,101656.16
2022-12-25T22:37:50.920Z,101648.13
2022-12-25T22:40:19.913Z,101633.06
2022-12-25T22:42:47.470Z,101634.91
2022-12-25T22:45:14.478Z,101641.50
2022-12-25T22:47:42.022Z,101636.88
2022-12-25T22:50:09.846Z,101644.75
2022-12-25T22:52:38.284Z,101650.84
2022-12-25T22:55:06.030Z,101651.97
2022-12-25T22:57:33.098Z,101647.66
2022-12-25T23:00:00.124Z,101653.59
2022-12-25T23:02:27.374Z,101662.16
2022-12-25T23:04:54.371Z,101656.34
2022-12-25T23:07:21.297Z,101662.16
2022-12-25T23:09:48.336Z,101660.56
2022-12-25T23:12:33.707Z,101669.06
2022-12-25T23:15:00.684Z,101670.91
2022-12-25T23:17:46.136Z,101672.88
2022-12-25T23:20:33.375Z,101667.28
2022-12-25T23:23:19.708Z,101680.66
2022-12-25T23:26:05.686Z,101684.00
2022-12-25T23:28:51.596Z,101676.63
2022-12-25T23:31:20.632Z,101683.69
2022-12-25T23:33:47.626Z,101684.00
2022-12-25T23:36:18.452Z,101683.22
2022-12-25T23:38:47.551Z,101682.69
2022-12-25T23:41:28.880Z,101693.75
2022-12-25T23:43:55.814Z,101701.38
2022-12-25T23:46:22.734Z,101713.16
2022-12-25T23:48:49.571Z,101713.94
2022-12-25T23:51:16.987Z,101712.56
2022-12-25T23:53:43.798Z,101709.88
2022-12-25T23:56:10.703Z,101722.19
2022-12-25T23:58:37.893Z,101727.38
